Back to Top

Language: 

My Weather Underground Personal Weather Station Historical Data with Graphs...

Delerius Weather Station Historical Data
Daily Summary for December 18, 2017 Units:  Metric    English   Both
« Previous Day
Next Day »
Daily Weekly Monthly Yearly Custom
  High: Low: Average:
Temperature: 9.3 °C 0.4 °C 4.4 °C
Dew Point: 4.8 °C -0.7 °C 2.6 °C
Humidity: 96 % 72 % 88 %
Wind Speed: 14.5 km/h 0 km/h 3.5 km/h
Wind Gust: 20.9 km/h - -
Wind:- - WNW
Pressure: 1031.4 hPa 1022.2 hPa -
Precipitation: 0 mm    
Historical Graphs
 
 
Tabular Data for December 18, 2017
Time Temperature Dew Point Pressure Wind Wind Speed Wind Gust Humidity Rainfall Rate (Hourly) solar Conditions
00:00 4.2 °C 2.2 °C 1022.2 hPa WNW 9.7 km/h 12.9 km/h 87 % 0 mm 0 W/m2
00:01 4.2 °C 2.2 °C 1022.2 hPa WNW 8 km/h 12.9 km/h 87 % 0 mm 0 W/m2
00:04 4.1 °C 2.1 °C 1022.6 hPa WNW 8 km/h 11.3 km/h 87 % 0 mm 0 W/m2
00:08 4.1 °C 2.1 °C 1022.6 hPa WNW 9.7 km/h 14.5 km/h 87 % 0 mm 0 W/m2
00:13 4 °C 2.1 °C 1022.2 hPa WNW 11.3 km/h 17.7 km/h 87 % 0 mm 0 W/m2
00:15 4 °C 2.1 °C 1022.6 hPa WNW 9.7 km/h 14.5 km/h 87 % 0 mm 0 W/m2
00:18 4.1 °C 2.1 °C 1022.6 hPa WNW 9.7 km/h 14.5 km/h 87 % 0 mm 0 W/m2
00:21 4.1 °C 2.1 °C 1022.2 hPa WNW 11.3 km/h 16.1 km/h 87 % 0 mm 0 W/m2
00:26 4.1 °C 2.1 °C 1022.2 hPa WNW 9.7 km/h 14.5 km/h 87 % 0 mm 0 W/m2
00:29 4.1 °C 1.9 °C 1022.6 hPa WNW 6.4 km/h 11.3 km/h 86 % 0 mm 0 W/m2
00:34 4.1 °C 1.9 °C 1022.6 hPa WNW 3.2 km/h 8 km/h 86 % 0 mm 0 W/m2
00:36 4.1 °C 1.9 °C 1022.6 hPa WNW 4.8 km/h 8 km/h 86 % 0 mm 0 W/m2
00:42 3.9 °C 1.8 °C 1022.6 hPa WNW 8 km/h 12.9 km/h 86 % 0 mm 0 W/m2
00:47 3.8 °C 1.8 °C 1022.6 hPa WNW 11.3 km/h 16.1 km/h 87 % 0 mm 0 W/m2
00:50 3.9 °C 1.9 °C 1022.6 hPa WNW 11.3 km/h 16.1 km/h 87 % 0 mm 0 W/m2
00:55 3.9 °C 1.9 °C 1022.9 hPa WNW 8 km/h 17.7 km/h 87 % 0 mm 0 W/m2
00:56 3.9 °C 1.9 °C 1022.9 hPa WNW 8 km/h 17.7 km/h 87 % 0 mm 0 W/m2
00:57 3.9 °C 1.9 °C 1022.9 hPa WNW 8 km/h 17.7 km/h 87 % 0 mm 0 W/m2
01:02 4.1 °C 2.1 °C 1022.9 hPa WNW 11.3 km/h 16.1 km/h 87 % 0 mm 0 W/m2
01:03 4.1 °C 2.1 °C 1022.9 hPa WNW 9.7 km/h 16.1 km/h 87 % 0 mm 0 W/m2
01:08 4.1 °C 2.1 °C 1023.2 hPa WNW 6.4 km/h 11.3 km/h 87 % 0 mm 0 W/m2
01:11 4.1 °C 2.1 °C 1023.2 hPa WNW 8 km/h 12.9 km/h 87 % 0 mm 0 W/m2
01:16 4 °C 2.1 °C 1023.2 hPa NW 9.7 km/h 12.9 km/h 87 % 0 mm 0 W/m2
01:18 4 °C 2.1 °C 1023.2 hPa NW 9.7 km/h 14.5 km/h 87 % 0 mm 0 W/m2
01:19 4 °C 2.1 °C 1023.2 hPa NW 9.7 km/h 14.5 km/h 87 % 0 mm 0 W/m2
01:24 4.1 °C 2.3 °C 1023.2 hPa NW 9.7 km/h 16.1 km/h 88 % 0 mm 0 W/m2
01:29 4.2 °C 2.4 °C 1023.6 hPa WNW 11.3 km/h 17.7 km/h 88 % 0 mm 0 W/m2
01:30 4.2 °C 2.4 °C 1023.6 hPa WNW 11.3 km/h 17.7 km/h 88 % 0 mm 0 W/m2
01:35 4.3 °C 2.5 °C 1023.2 hPa WNW 9.7 km/h 14.5 km/h 88 % 0 mm 0 W/m2
01:40 4.3 °C 2.5 °C 1023.2 hPa WNW 9.7 km/h 14.5 km/h 88 % 0 mm 0 W/m2
01:42 4.2 °C 2.4 °C 1023.2 hPa WNW 9.7 km/h 14.5 km/h 88 % 0 mm 0 W/m2
01:47 4.2 °C 2.4 °C 1023.6 hPa WNW 9.7 km/h 14.5 km/h 88 % 0 mm 0 W/m2
01:48 4.2 °C 2.4 °C 1023.2 hPa WNW 9.7 km/h 17.7 km/h 88 % 0 mm 0 W/m2
01:51 4.2 °C 2.6 °C 1023.6 hPa WNW 9.7 km/h 16.1 km/h 89 % 0 mm 0 W/m2
01:55 4.2 °C 2.6 °C 1023.6 hPa NW 8 km/h 16.1 km/h 89 % 0 mm 0 W/m2
02:00 4.3 °C 2.8 °C 1023.6 hPa WNW 14.5 km/h 19.3 km/h 90 % 0 mm 0 W/m2
02:04 4.4 °C 2.9 °C 1023.6 hPa WNW 9.7 km/h 16.1 km/h 90 % 0 mm 0 W/m2
02:07 4.4 °C 2.9 °C 1023.6 hPa WNW 9.7 km/h 17.7 km/h 90 % 0 mm 0 W/m2
02:10 4.4 °C 2.9 °C 1023.6 hPa WNW 9.7 km/h 16.1 km/h 90 % 0 mm 0 W/m2
02:12 4.4 °C 2.9 °C 1023.6 hPa WNW 8 km/h 16.1 km/h 90 % 0 mm 0 W/m2
02:17 4.3 °C 2.8 °C 1023.6 hPa WNW 8 km/h 14.5 km/h 90 % 0 mm 0 W/m2
02:18 4.3 °C 2.8 °C 1023.6 hPa WNW 9.7 km/h 14.5 km/h 90 % 0 mm 0 W/m2
02:20 4.3 °C 2.8 °C 1023.6 hPa WNW 9.7 km/h 14.5 km/h 90 % 0 mm 0 W/m2
02:25 4.3 °C 2.8 °C 1023.6 hPa NW 9.7 km/h 16.1 km/h 90 % 0 mm 0 W/m2
02:30 4.3 °C 2.8 °C 1023.6 hPa NW 11.3 km/h 16.1 km/h 90 % 0 mm 0 W/m2
02:34 4.3 °C 2.9 °C 1023.6 hPa NW 9.7 km/h 14.5 km/h 91 % 0 mm 0 W/m2
02:39 4.3 °C 2.9 °C 1023.6 hPa WNW 12.9 km/h 19.3 km/h 91 % 0 mm 0 W/m2
02:44 4.3 °C 2.9 °C 1023.6 hPa NW 9.7 km/h 17.7 km/h 91 % 0 mm 0 W/m2
02:45 4.3 °C 2.9 °C 1023.6 hPa WNW 11.3 km/h 17.7 km/h 91 % 0 mm 0 W/m2
02:50 4.3 °C 2.9 °C 1023.6 hPa NW 9.7 km/h 14.5 km/h 91 % 0 mm 0 W/m2
02:51 4.3 °C 2.9 °C 1023.6 hPa NW 9.7 km/h 14.5 km/h 91 % 0 mm 0 W/m2
02:56 4.3 °C 2.9 °C 1023.9 hPa NW 9.7 km/h 16.1 km/h 91 % 0 mm 0 W/m2
02:57 4.2 °C 2.9 °C 1023.9 hPa NW 8 km/h 16.1 km/h 91 % 0 mm 0 W/m2
03:02 4.2 °C 2.9 °C 1023.9 hPa NW 11.3 km/h 16.1 km/h 91 % 0 mm 0 W/m2
03:07 4.2 °C 2.9 °C 1023.9 hPa NW 9.7 km/h 20.9 km/h 91 % 0 mm 0 W/m2
03:08 4.2 °C 2.9 °C 1024.3 hPa NW 9.7 km/h 20.9 km/h 91 % 0 mm 0 W/m2
03:13 4.2 °C 2.9 °C 1024.3 hPa WNW 11.3 km/h 14.5 km/h 91 % 0 mm 0 W/m2
03:19 4.1 °C 2.8 °C 1024.3 hPa WNW 8 km/h 12.9 km/h 91 % 0 mm 0 W/m2
03:21 4.1 °C 2.8 °C 1024.3 hPa WNW 6.4 km/h 9.7 km/h 91 % 0 mm 0 W/m2
03:24 4 °C 2.7 °C 1024.3 hPa NW 6.4 km/h 9.7 km/h 91 % 0 mm 0 W/m2
03:29 3.9 °C 2.6 °C 1024.3 hPa NW 8 km/h 14.5 km/h 91 % 0 mm 0 W/m2
03:30 3.9 °C 2.6 °C 1024.3 hPa NW 8 km/h 14.5 km/h 91 % 0 mm 0 W/m2
03:31 3.9 °C 2.6 °C 1024.3 hPa NW 8 km/h 14.5 km/h 91 % 0 mm 0 W/m2
03:36 3.9 °C 2.6 °C 1024.3 hPa NW 11.3 km/h 19.3 km/h 91 % 0 mm 0 W/m2
03:38 3.9 °C 2.6 °C 1024.3 hPa NW 11.3 km/h 19.3 km/h 91 % 0 mm 0 W/m2
03:43 3.9 °C 2.6 °C 1024.3 hPa WNW 11.3 km/h 16.1 km/h 91 % 0 mm 0 W/m2
03:45 3.9 °C 2.6 °C 1024.6 hPa WNW 11.3 km/h 19.3 km/h 91 % 0 mm 0 W/m2
03:50 3.9 °C 2.6 °C 1024.6 hPa WNW 9.7 km/h 14.5 km/h 91 % 0 mm 0 W/m2
03:52 3.9 °C 2.6 °C 1024.6 hPa WNW 9.7 km/h 14.5 km/h 91 % 0 mm 0 W/m2
03:57 3.9 °C 2.6 °C 1024.6 hPa NW 6.4 km/h 14.5 km/h 91 % 0 mm 0 W/m2
03:59 3.8 °C 2.4 °C 1024.6 hPa NW 8 km/h 11.3 km/h 91 % 0 mm 0 W/m2
04:04 3.7 °C 2.4 °C 1024.6 hPa NW 8 km/h 12.9 km/h 91 % 0 mm 0 W/m2
04:08 3.7 °C 2.4 °C 1024.6 hPa NW 8 km/h 12.9 km/h 91 % 0 mm 0 W/m2
04:10 3.7 °C 2.4 °C 1024.6 hPa NW 9.7 km/h 12.9 km/h 91 % 0 mm 0 W/m2
04:15 3.7 °C 2.4 °C 1024.6 hPa WNW 9.7 km/h 16.1 km/h 91 % 0 mm 0 W/m2
04:20 3.7 °C 2.4 °C 1024.6 hPa WNW 8 km/h 14.5 km/h 91 % 0 mm 0 W/m2
04:25 3.7 °C 2.4 °C 1024.6 hPa NW 9.7 km/h 14.5 km/h 91 % 0 mm 0 W/m2
04:28 3.6 °C 2.3 °C 1024.6 hPa NW 6.4 km/h 9.7 km/h 91 % 0 mm 0 W/m2
04:31 3.6 °C 2.3 °C 1024.9 hPa WNW 8 km/h 11.3 km/h 91 % 0 mm 0 W/m2
04:35 3.6 °C 2.3 °C 1024.9 hPa WNW 6.4 km/h 11.3 km/h 91 % 0 mm 0 W/m2
04:39 3.5 °C 2.2 °C 1024.9 hPa WNW 6.4 km/h 9.7 km/h 91 % 0 mm 0 W/m2
04:41 3.5 °C 2.2 °C 1024.9 hPa WNW 4.8 km/h 9.7 km/h 91 % 0 mm 0 W/m2
04:46 3.4 °C 2.1 °C 1024.9 hPa WNW 3.2 km/h 9.7 km/h 91 % 0 mm 0 W/m2
04:51 3.3 °C 1.8 °C 1024.9 hPa WNW 4.8 km/h 8 km/h 90 % 0 mm 0 W/m2
04:56 3.2 °C 1.9 °C 1025.3 hPa NW 6.4 km/h 9.7 km/h 91 % 0 mm 0 W/m2
05:00 3.2 °C 1.9 °C 1025.3 hPa NW 6.4 km/h 11.3 km/h 91 % 0 mm 0 W/m2
05:04 3.2 °C 1.9 °C 1025.3 hPa NW 8 km/h 11.3 km/h 91 % 0 mm 0 W/m2
05:05 3.2 °C 1.9 °C 1025.3 hPa NW 8 km/h 11.3 km/h 91 % 0 mm 0 W/m2
05:10 3.2 °C 1.9 °C 1025.3 hPa NW 8 km/h 11.3 km/h 91 % 0 mm 0 W/m2
05:14 3.2 °C 1.9 °C 1025.3 hPa NW 8 km/h 12.9 km/h 91 % 0 mm 0 W/m2
05:17 3.3 °C 1.9 °C 1025.6 hPa WNW 4.8 km/h 12.9 km/h 91 % 0 mm 0 W/m2
05:19 3.3 °C 1.9 °C 1025.6 hPa NW 4.8 km/h 11.3 km/h 91 % 0 mm 0 W/m2
05:23 3.3 °C 1.9 °C 1025.6 hPa NW 6.4 km/h 11.3 km/h 91 % 0 mm 0 W/m2
05:29 3.3 °C 1.9 °C 1025.6 hPa NW 8 km/h 14.5 km/h 91 % 0 mm 0 W/m2
05:30 3.3 °C 1.9 °C 1025.6 hPa NW 8 km/h 14.5 km/h 91 % 0 mm 0 W/m2
05:35 3.3 °C 1.8 °C 1025.6 hPa NW 6.4 km/h 12.9 km/h 90 % 0 mm 0 W/m2
05:36 3.3 °C 1.8 °C 1025.6 hPa NW 6.4 km/h 12.9 km/h 90 % 0 mm 0 W/m2
05:40 3.3 °C 1.8 °C 1025.6 hPa NW 4.8 km/h 8 km/h 90 % 0 mm 0 W/m2
05:42 3.3 °C 1.8 °C 1025.6 hPa WNW 4.8 km/h 11.3 km/h 90 % 0 mm 0 W/m2
05:45 3.3 °C 1.8 °C 1025.6 hPa WNW 3.2 km/h 8 km/h 90 % 0 mm 0 W/m2
05:47 3.3 °C 1.8 °C 1026 hPa WNW 1.6 km/h 6.4 km/h 90 % 0 mm 0 W/m2
05:51 3.2 °C 1.7 °C 1026 hPa WNW 3.2 km/h 9.7 km/h 90 % 0 mm 0 W/m2
05:53 3.2 °C 1.7 °C 1026 hPa NW 3.2 km/h 8 km/h 90 % 0 mm 0 W/m2
05:58 3.1 °C 1.6 °C 1026 hPa NW 3.2 km/h 8 km/h 90 % 0 mm 0 W/m2
06:00 3.1 °C 1.6 °C 1026 hPa NW 4.8 km/h 9.7 km/h 90 % 0 mm 0 W/m2
06:05 3.1 °C 1.6 °C 1026 hPa NW 3.2 km/h 8 km/h 90 % 0 mm 0 W/m2
06:10 3.1 °C 1.6 °C 1026 hPa NW 4.8 km/h 9.7 km/h 90 % 0 mm 0 W/m2
06:13 3.1 °C 1.6 °C 1026 hPa NW 4.8 km/h 8 km/h 90 % 0 mm 0 W/m2
06:18 3.1 °C 1.6 °C 1026 hPa NW 6.4 km/h 11.3 km/h 90 % 0 mm 0 W/m2
06:23 3.1 °C 1.6 °C 1026 hPa NW 4.8 km/h 11.3 km/h 90 % 0 mm 0 W/m2
06:28 3.1 °C 1.4 °C 1026.3 hPa Calm   3.2 km/h 89 % 0 mm 0 W/m2
06:33 2.9 °C 1.3 °C 1026.6 hPa Calm   1.6 km/h 89 % 0 mm 0 W/m2
06:35 2.8 °C 1.2 °C 1026.6 hPa Calm     89 % 0 mm 0 W/m2
06:40 2.7 °C 1.1 °C 1026.6 hPa WNW 1.6 km/h 3.2 km/h 89 % 0 mm 0 W/m2
06:41 2.6 °C 0.9 °C 1026.6 hPa WNW 1.6 km/h 3.2 km/h 89 % 0 mm 0 W/m2
06:42 2.6 °C 0.9 °C 1026.6 hPa WNW 1.6 km/h 3.2 km/h 89 % 0 mm 0 W/m2
06:47 2.4 °C 0.8 °C 1026.6 hPa Calm   1.6 km/h 89 % 0 mm 0 W/m2
06:48 2.4 °C 0.8 °C 1026.6 hPa Calm   1.6 km/h 89 % 0 mm 0 W/m2
06:53 2.3 °C 0.7 °C 1026.6 hPa Calm     89 % 0 mm 0 W/m2
06:58 2.1 °C 0.5 °C 1026.6 hPa Calm     89 % 0 mm 0 W/m2
07:00 2.1 °C 0.5 °C 1026.6 hPa Calm     89 % 0 mm 0 W/m2
07:05 1.9 °C 0.4 °C 1027 hPa Calm     90 % 0 mm 0 W/m2
07:07 1.9 °C 0.4 °C 1027 hPa WNW 1.6 km/h 4.8 km/h 90 % 0 mm 0 W/m2
07:09 1.8 °C 0.3 °C 1027 hPa NW 3.2 km/h 4.8 km/h 90 % 0 mm 0 W/m2
07:13 1.7 °C 0.2 °C 1027 hPa Calm   1.6 km/h 90 % 0 mm 0 W/m2
07:18 1.6 °C 0.1 °C 1027 hPa Calm   1.6 km/h 90 % 0 mm 0 W/m2
07:23 1.6 °C 0.3 °C 1027.3 hPa NW 4.8 km/h 8 km/h 91 % 0 mm 0 W/m2
07:26 1.7 °C 0.6 °C 1027.3 hPa NW 4.8 km/h 8 km/h 92 % 0 mm 0 W/m2
07:29 1.8 °C 0.6 °C 1027.3 hPa NW 3.2 km/h 6.4 km/h 92 % 0 mm 0 W/m2
07:34 1.9 °C 0.7 °C 1027.7 hPa WNW 1.6 km/h 8 km/h 92 % 0 mm 0 W/m2
07:38 1.9 °C 0.7 °C 1027.7 hPa WNW 1.6 km/h 3.2 km/h 92 % 0 mm 0 W/m2
07:43 1.8 °C 0.5 °C 1027.7 hPa Calm   3.2 km/h 91 % 0 mm 0 W/m2
07:48 1.6 °C 0.3 °C 1027.7 hPa Calm   3.2 km/h 91 % 0 mm 0 W/m2
07:50 1.6 °C 0.3 °C 1027.7 hPa WNW 1.6 km/h 4.8 km/h 91 % 0 mm 0 W/m2
07:55 1.4 °C 0.1 °C 1027.7 hPa Calm     91 % 0 mm 0 W/m2
07:58 1.4 °C 0.1 °C 1027.7 hPa Calm     91 % 0 mm 0 W/m2
08:01 1.3 °C 0 °C 1027.7 hPa Calm     91 % 0 mm 0 W/m2
08:06 1.1 °C -0.2 °C 1027.7 hPa Calm     91 % 0 mm 0 W/m2
08:08 1.1 °C -0.2 °C 1027.7 hPa Calm     91 % 0 mm 0 W/m2
08:09 1.1 °C -0.2 °C 1027.7 hPa Calm     91 % 0 mm 0 W/m2
08:14 1 °C -0.2 °C 1027.7 hPa WNW 3.2 km/h 4.8 km/h 92 % 0 mm 0 W/m2
08:16 1 °C -0.2 °C 1027.7 hPa WNW 1.6 km/h 3.2 km/h 92 % 0 mm 5 W/m2
08:21 1 °C -0.2 °C 1027.7 hPa Calm     92 % 0 mm 7 W/m2
08:22 1 °C -0.2 °C 1028 hPa Calm     92 % 0 mm 7 W/m2
08:27 0.9 °C -0.3 °C 1028 hPa Calm     92 % 0 mm 9 W/m2
08:29 0.8 °C -0.3 °C 1028 hPa Calm     92 % 0 mm 9 W/m2
08:34 0.8 °C -0.3 °C 1028 hPa Calm   1.6 km/h 92 % 0 mm 12 W/m2
08:39 0.7 °C -0.4 °C 1028 hPa Calm     92 % 0 mm 14 W/m2
08:44 0.6 °C -0.6 °C 1028 hPa Calm     92 % 0 mm 16 W/m2
08:48 0.6 °C -0.6 °C 1028 hPa Calm     92 % 0 mm 19 W/m2
08:50 0.6 °C -0.6 °C 1028 hPa Calm     92 % 0 mm 21 W/m2
08:55 0.5 °C -0.7 °C 1028.3 hPa Calm     92 % 0 mm 23 W/m2
08:57 0.5 °C -0.5 °C 1028.3 hPa Calm     93 % 0 mm 25 W/m2
09:02 0.4 °C -0.6 °C 1028.3 hPa Calm     93 % 0 mm 26 W/m2
09:03 0.4 °C -0.6 °C 1028.3 hPa Calm     93 % 0 mm 26 W/m2
09:10 0.4 °C -0.6 °C 1028.7 hPa Calm     93 % 0 mm 30 W/m2
09:15 0.5 °C -0.5 °C 1028.7 hPa Calm     93 % 0 mm 32 W/m2
09:17 0.5 °C -0.5 °C 1028.7 hPa Calm     93 % 0 mm 32 W/m2
09:18 0.6 °C -0.4 °C 1028.7 hPa Calm     93 % 0 mm 32 W/m2
09:23 0.6 °C -0.4 °C 1028.7 hPa Calm     93 % 0 mm 47 W/m2
09:24 0.6 °C -0.4 °C 1028.7 hPa Calm     93 % 0 mm 58 W/m2
09:29 0.7 °C -0.2 °C 1028.7 hPa Calm     94 % 0 mm 84 W/m2
09:31 0.7 °C -0.2 °C 1028.7 hPa Calm     94 % 0 mm 81 W/m2
09:36 0.8 °C -0.1 °C 1029 hPa Calm     94 % 0 mm 113 W/m2
09:37 0.9 °C 0.1 °C 1028.7 hPa Calm     94 % 0 mm 118 W/m2
09:42 1.1 °C 0.4 °C 1028.7 hPa Calm     95 % 0 mm 125 W/m2
09:46 1.3 °C 0.6 °C 1029 hPa Calm     95 % 0 mm 130 W/m2
09:51 1.6 °C 0.9 °C 1029 hPa Calm     95 % 0 mm 135 W/m2
09:57 2.1 °C 1.4 °C 1028.7 hPa Calm     95 % 0 mm 144 W/m2
09:58 2.3 °C 1.7 °C 1029 hPa Calm     96 % 0 mm 146 W/m2
10:00 2.5 °C 1.9 °C 1029 hPa Calm     96 % 0 mm 149 W/m2
10:05 3.1 °C 2.5 °C 1029 hPa Calm     96 % 0 mm 155 W/m2
10:06 3.2 °C 2.6 °C 1029.3 hPa Calm     96 % 0 mm 156 W/m2
10:11 3.6 °C 2.9 °C 1029.3 hPa Calm   3.2 km/h 95 % 0 mm 163 W/m2
10:15 3.8 °C 2.9 °C 1029.3 hPa WNW 1.6 km/h 3.2 km/h 94 % 0 mm 158 W/m2
10:20 4.1 °C 3.2 °C 1029.3 hPa Calm     94 % 0 mm 162 W/m2
10:22 4.2 °C 3.2 °C 1029.3 hPa Calm     93 % 0 mm 158 W/m2
10:26 4.4 °C 3.4 °C 1029.3 hPa Calm     93 % 0 mm 167 W/m2
10:31 4.7 °C 3.3 °C 1029.3 hPa Calm     91 % 0 mm 183 W/m2
10:33 4.8 °C 3.4 °C 1029.3 hPa Calm   1.6 km/h 91 % 0 mm 188 W/m2
10:38 4.9 °C 3.4 °C 1029.3 hPa Calm   1.6 km/h 90 % 0 mm 190 W/m2
10:41 5.1 °C 3.6 °C 1029.3 hPa Calm   1.6 km/h 90 % 0 mm 169 W/m2
10:44 5.2 °C 3.6 °C 1029.3 hPa Calm     89 % 0 mm 160 W/m2
10:47 5.4 °C 3.7 °C 1029.7 hPa Calm   3.2 km/h 89 % 0 mm 186 W/m2
10:49 5.6 °C 3.8 °C 1029.7 hPa Calm   3.2 km/h 88 % 0 mm 171 W/m2
10:54 5.8 °C 3.8 °C 1029.7 hPa Calm     87 % 0 mm 199 W/m2
10:55 5.8 °C 3.8 °C 1029.7 hPa Calm     87 % 0 mm 199 W/m2
10:58 6 °C 3.8 °C 1029.7 hPa Calm     86 % 0 mm 197 W/m2
11:02 6.2 °C 3.9 °C 1029.7 hPa Calm     85 % 0 mm 200 W/m2
11:07 6.4 °C 4.1 °C 1029.7 hPa Calm     85 % 0 mm 209 W/m2
11:08 6.4 °C 3.9 °C 1029.7 hPa Calm     84 % 0 mm 209 W/m2
11:11 6.5 °C 4 °C 1029.7 hPa Calm     84 % 0 mm 209 W/m2
11:14 6.6 °C 4.1 °C 1029.7 hPa Calm   3.2 km/h 84 % 0 mm 216 W/m2
11:19 6.8 °C 4.3 °C 1029.7 hPa Calm   3.2 km/h 84 % 0 mm 216 W/m2
11:20 6.9 °C 4.4 °C 1029.7 hPa WNW 1.6 km/h 8 km/h 84 % 0 mm 218 W/m2
11:25 7.2 °C 4.3 °C 1030 hPa WNW 6.4 km/h 8 km/h 82 % 0 mm 221 W/m2
11:28 7.3 °C 4.3 °C 1030 hPa WNW 1.6 km/h 3.2 km/h 81 % 0 mm 218 W/m2
11:31 7.4 °C 4.3 °C 1030 hPa Calm   1.6 km/h 81 % 0 mm 225 W/m2
11:36 7.7 °C 4.7 °C 1029.7 hPa WNW 1.6 km/h 6.4 km/h 81 % 0 mm 230 W/m2
11:37 7.7 °C 4.7 °C 1030 hPa WNW 1.6 km/h 3.2 km/h 81 % 0 mm 229 W/m2
11:40 7.8 °C 4.6 °C 1030 hPa Calm   3.2 km/h 80 % 0 mm 232 W/m2
11:43 7.9 °C 4.7 °C 1030 hPa Calm   6.4 km/h 80 % 0 mm 234 W/m2
11:48 8.1 °C 4.7 °C 1030 hPa WNW 1.6 km/h 4.8 km/h 79 % 0 mm 232 W/m2
11:49 8.1 °C 4.7 °C 1030 hPa WNW 4.8 km/h 8 km/h 79 % 0 mm 239 W/m2
11:54 8.2 °C 4.4 °C 1030 hPa WNW 3.2 km/h 6.4 km/h 77 % 0 mm 237 W/m2
11:59 8.3 °C 4.5 °C 1030 hPa WNW 1.6 km/h 6.4 km/h 77 % 0 mm 248 W/m2
12:00 8.3 °C 4.5 °C 1030 hPa West 3.2 km/h 9.7 km/h 77 % 0 mm 248 W/m2
12:05 8.5 °C 4.5 °C 1030 hPa West 4.8 km/h 8 km/h 76 % 0 mm 250 W/m2
12:10 8.6 °C 4.4 °C 1029.7 hPa West 4.8 km/h 8 km/h 75 % 0 mm 258 W/m2
12:11 8.6 °C 4.4 °C 1029.7 hPa West 4.8 km/h 8 km/h 75 % 0 mm 260 W/m2
12:16 8.7 °C 4.7 °C 1029.7 hPa WNW 6.4 km/h 9.7 km/h 76 % 0 mm 264 W/m2
12:17 8.8 °C 4.6 °C 1029.7 hPa WNW 4.8 km/h 8 km/h 75 % 0 mm 262 W/m2
12:22 8.9 °C 4.7 °C 1029.7 hPa West 1.6 km/h 8 km/h 75 % 0 mm 267 W/m2
12:24 8.9 °C 4.7 °C 1029.7 hPa West 1.6 km/h 8 km/h 75 % 0 mm 271 W/m2
12:28 9.1 °C 4.7 °C 1029.7 hPa West 4.8 km/h 8 km/h 74 % 0 mm 239 W/m2
12:33 9.2 °C 4.8 °C 1029.7 hPa WNW 1.6 km/h 4.8 km/h 74 % 0 mm 248 W/m2
12:35 9.2 °C 4.6 °C 1029.7 hPa West 3.2 km/h 8 km/h 73 % 0 mm 243 W/m2
12:40 9.2 °C 4.6 °C 1029.7 hPa West 6.4 km/h 9.7 km/h 73 % 0 mm 265 W/m2
12:45 9.2 °C 4.6 °C 1029.7 hPa West 1.6 km/h 8 km/h 73 % 0 mm 239 W/m2
12:48 9.3 °C 4.5 °C 1029.7 hPa West 3.2 km/h 6.4 km/h 72 % 0 mm 202 W/m2
12:53 9.2 °C 4.4 °C 1029.7 hPa West 3.2 km/h 8 km/h 72 % 0 mm 165 W/m2
12:56 9.2 °C 4.4 °C 1029.7 hPa West 3.2 km/h 6.4 km/h 72 % 0 mm 167 W/m2
12:59 9.1 °C 4.3 °C 1029.7 hPa West 3.2 km/h 6.4 km/h 72 % 0 mm 174 W/m2
13:01 9.1 °C 4.3 °C 1029.7 hPa West 3.2 km/h 8 km/h 72 % 0 mm 211 W/m2
13:06 9 °C 4.2 °C 1029.7 hPa WSW 4.8 km/h 8 km/h 72 % 0 mm 192 W/m2
13:07 9 °C 4.2 °C 1029.7 hPa WSW 4.8 km/h 8 km/h 72 % 0 mm 199 W/m2
13:10 9 °C 4.2 °C 1029.7 hPa WSW 3.2 km/h 6.4 km/h 72 % 0 mm 183 W/m2
13:15 8.9 °C 4.3 °C 1030 hPa WSW 1.6 km/h 4.8 km/h 73 % 0 mm 213 W/m2
13:17 9 °C 4.4 °C 1030 hPa WSW 1.6 km/h 8 km/h 73 % 0 mm 195 W/m2
13:22 9.1 °C 4.5 °C 1030 hPa West 6.4 km/h 11.3 km/h 73 % 0 mm 197 W/m2
13:25 9.1 °C 4.3 °C 1030 hPa West 6.4 km/h 11.3 km/h 72 % 0 mm 183 W/m2
13:30 9.1 °C 4.3 °C 1029.7 hPa West 6.4 km/h 9.7 km/h 72 % 0 mm 183 W/m2
13:32 9.2 °C 4.4 °C 1029.7 hPa West 3.2 km/h 9.7 km/h 72 % 0 mm 171 W/m2
13:37 9.2 °C 4.4 °C 1029.7 hPa West 4.8 km/h 8 km/h 72 % 0 mm 162 W/m2
13:42 9.2 °C 4.4 °C 1029.7 hPa Calm   1.6 km/h 72 % 0 mm 144 W/m2
13:45 9.2 °C 4.4 °C 1029.7 hPa West 1.6 km/h 6.4 km/h 72 % 0 mm 137 W/m2
13:47 9.3 °C 4.5 °C 1029.7 hPa West 1.6 km/h 6.4 km/h 72 % 0 mm 135 W/m2
13:52 9.2 °C 4.4 °C 1029.7 hPa WSW 4.8 km/h 9.7 km/h 72 % 0 mm 118 W/m2
13:53 9.1 °C 4.3 °C 1029.7 hPa WSW 4.8 km/h 9.7 km/h 72 % 0 mm 118 W/m2
13:58 9 °C 4.2 °C 1029.7 hPa WSW 1.6 km/h 3.2 km/h 72 % 0 mm 95 W/m2
13:59 9 °C 4.2 °C 1029.7 hPa Calm   3.2 km/h 72 % 0 mm 88 W/m2
14:04 8.9 °C 4.3 °C 1029.7 hPa WSW 1.6 km/h 4.8 km/h 73 % 0 mm 105 W/m2
14:05 8.9 °C 4.1 °C 1029.7 hPa WSW 1.6 km/h 4.8 km/h 72 % 0 mm 109 W/m2
14:10 8.8 °C 4.2 °C 1029.7 hPa WSW 1.6 km/h 3.2 km/h 73 % 0 mm 90 W/m2
14:12 8.8 °C 4.2 °C 1029.7 hPa WSW 1.6 km/h 6.4 km/h 73 % 0 mm 91 W/m2
14:17 8.8 °C 4.4 °C 1029.7 hPa WSW 1.6 km/h 4.8 km/h 74 % 0 mm 86 W/m2
14:18 8.8 °C 4.4 °C 1029.7 hPa WSW 1.6 km/h 4.8 km/h 74 % 0 mm 86 W/m2
14:21 8.7 °C 4.3 °C 1029.7 hPa WSW 1.6 km/h 6.4 km/h 74 % 0 mm 97 W/m2
14:24 8.7 °C 4.3 °C 1029.7 hPa WSW 3.2 km/h 6.4 km/h 74 % 0 mm 97 W/m2
14:29 8.7 °C 4.5 °C 1029.7 hPa Calm   3.2 km/h 75 % 0 mm 83 W/m2
14:32 8.7 °C 4.5 °C 1029.7 hPa WSW 1.6 km/h 6.4 km/h 75 % 0 mm 74 W/m2
14:33 8.7 °C 4.5 °C 1029.7 hPa WSW 1.6 km/h 6.4 km/h 75 % 0 mm 67 W/m2
14:38 8.6 °C 4.4 °C 1029.7 hPa Calm   1.6 km/h 75 % 0 mm 77 W/m2
14:43 8.6 °C 4.4 °C 1029.7 hPa Calm   1.6 km/h 75 % 0 mm 65 W/m2
14:45 8.6 °C 4.4 °C 1029.7 hPa Calm     75 % 0 mm 63 W/m2
14:50 8.4 °C 4.2 °C 1029.7 hPa Calm     75 % 0 mm 53 W/m2
14:51 8.4 °C 4.2 °C 1029.7 hPa Calm     75 % 0 mm 51 W/m2
14:52 8.4 °C 4.2 °C 1029.7 hPa Calm     75 % 0 mm 49 W/m2
14:56 8.3 °C 4.3 °C 1030 hPa Calm     76 % 0 mm 35 W/m2
15:01 8.1 °C 4.1 °C 1030 hPa Calm   1.6 km/h 76 % 0 mm 28 W/m2
15:02 8.1 °C 4.1 °C 1030 hPa Calm   1.6 km/h 76 % 0 mm 28 W/m2
15:07 7.9 °C 4.1 °C 1030 hPa Calm     77 % 0 mm 23 W/m2
15:11 7.8 °C 4 °C 1030 hPa Calm   3.2 km/h 77 % 0 mm 21 W/m2
15:14 7.7 °C 4.1 °C 1030 hPa Calm     78 % 0 mm 21 W/m2
15:19 7.5 °C 3.9 °C 1030 hPa Calm   3.2 km/h 78 % 0 mm 21 W/m2
15:21 7.4 °C 3.8 °C 1030 hPa WSW 1.6 km/h 4.8 km/h 78 % 0 mm 19 W/m2
15:26 7.3 °C 3.9 °C 1030 hPa West 3.2 km/h 8 km/h 79 % 0 mm 16 W/m2
15:27 7.2 °C 3.8 °C 1030 hPa West 4.8 km/h 8 km/h 79 % 0 mm 16 W/m2
15:29 7.1 °C 3.7 °C 1030 hPa WNW 4.8 km/h 9.7 km/h 79 % 0 mm 14 W/m2
15:34 6.9 °C 3.7 °C 1030 hPa WNW 6.4 km/h 9.7 km/h 80 % 0 mm 11 W/m2
15:36 6.8 °C 3.6 °C 1030 hPa WNW 6.4 km/h 9.7 km/h 80 % 0 mm 11 W/m2
15:41 6.6 °C 3.4 °C 1030 hPa NW 4.8 km/h 8 km/h 80 % 0 mm 7 W/m2
15:43 6.5 °C 3.5 °C 1030 hPa NW 3.2 km/h 6.4 km/h 81 % 0 mm 5 W/m2
15:46 6.4 °C 3.4 °C 1030 hPa NW 3.2 km/h 6.4 km/h 81 % 0 mm 5 W/m2
15:51 6.2 °C 3.2 °C 1030 hPa NW 1.6 km/h 6.4 km/h 81 % 0 mm 0 W/m2
15:53 6.2 °C 3.3 °C 1030 hPa NW 3.2 km/h 6.4 km/h 82 % 0 mm 0 W/m2
15:57 6 °C 3.2 °C 1030 hPa NW 1.6 km/h 4.8 km/h 82 % 0 mm 0 W/m2
15:58 5.9 °C 3.1 °C 1030 hPa NW 1.6 km/h 4.8 km/h 82 % 0 mm 0 W/m2
16:03 5.8 °C 3.1 °C 1030 hPa WNW 6.4 km/h 8 km/h 83 % 0 mm 0 W/m2
16:04 5.7 °C 3.1 °C 1030 hPa WNW 4.8 km/h 8 km/h 83 % 0 mm 0 W/m2
16:09 5.5 °C 2.8 °C 1030 hPa WNW 3.2 km/h 4.8 km/h 83 % 0 mm 0 W/m2
16:12 5.4 °C 2.9 °C 1030.4 hPa WNW 3.2 km/h 6.4 km/h 84 % 0 mm 0 W/m2
16:17 5.3 °C 3 °C 1030.4 hPa WNW 3.2 km/h 8 km/h 85 % 0 mm 0 W/m2
16:19 5.2 °C 2.9 °C 1030.4 hPa WNW 3.2 km/h 8 km/h 85 % 0 mm 0 W/m2
16:24 5.1 °C 2.9 °C 1030.4 hPa WNW 8 km/h 9.7 km/h 86 % 0 mm 0 W/m2
16:28 5 °C 2.8 °C 1030.4 hPa WNW 4.8 km/h 9.7 km/h 86 % 0 mm 0 W/m2
16:29 4.9 °C 2.8 °C 1030.4 hPa West 6.4 km/h 11.3 km/h 86 % 0 mm 0 W/m2
16:34 4.8 °C 2.8 °C 1030.4 hPa West 4.8 km/h 8 km/h 87 % 0 mm 0 W/m2
16:35 4.8 °C 2.8 °C 1030.4 hPa West 3.2 km/h 8 km/h 87 % 0 mm 0 W/m2
16:36 4.8 °C 2.8 °C 1030.4 hPa West 3.2 km/h 8 km/h 87 % 0 mm 0 W/m2
16:41 4.6 °C 2.6 °C 1030.7 hPa West 3.2 km/h 8 km/h 87 % 0 mm 0 W/m2
16:45 4.5 °C 2.5 °C 1030.7 hPa West 3.2 km/h 6.4 km/h 87 % 0 mm 0 W/m2
16:46 4.5 °C 2.5 °C 1030.7 hPa West 3.2 km/h 6.4 km/h 87 % 0 mm 0 W/m2
16:50 4.4 °C 2.6 °C 1030.7 hPa West 4.8 km/h 8 km/h 88 % 0 mm 0 W/m2
16:55 4.3 °C 2.5 °C 1030.7 hPa West 6.4 km/h 12.9 km/h 88 % 0 mm 0 W/m2
16:58 4.2 °C 2.4 °C 1031 hPa WNW 4.8 km/h 8 km/h 88 % 0 mm 0 W/m2
17:03 4.2 °C 2.6 °C 1031 hPa West 4.8 km/h 11.3 km/h 89 % 0 mm 0 W/m2
17:04 4.2 °C 2.6 °C 1031 hPa West 6.4 km/h 11.3 km/h 89 % 0 mm 0 W/m2
17:06 4.2 °C 2.6 °C 1031 hPa WSW 4.8 km/h 8 km/h 89 % 0 mm 0 W/m2
17:11 4.2 °C 2.7 °C 1031 hPa WSW 6.4 km/h 9.7 km/h 90 % 0 mm 0 W/m2
17:12 4.2 °C 2.7 °C 1031 hPa WSW 6.4 km/h 11.3 km/h 90 % 0 mm 0 W/m2
17:17 4.2 °C 2.9 °C 1031 hPa WSW 4.8 km/h 9.7 km/h 91 % 0 mm 0 W/m2
17:18 4.3 °C 2.9 °C 1031 hPa WSW 4.8 km/h 9.7 km/h 91 % 0 mm 0 W/m2
17:23 4.3 °C 2.9 °C 1031 hPa WSW 3.2 km/h 6.4 km/h 91 % 0 mm 0 W/m2
17:25 4.3 °C 2.9 °C 1031 hPa WSW 1.6 km/h 6.4 km/h 91 % 0 mm 0 W/m2
17:29 4.3 °C 2.9 °C 1031 hPa Calm   3.2 km/h 91 % 0 mm 0 W/m2
17:34 4.3 °C 2.9 °C 1031 hPa WSW 3.2 km/h 6.4 km/h 91 % 0 mm 0 W/m2
17:38 4.3 °C 2.9 °C 1031 hPa WSW 3.2 km/h 6.4 km/h 91 % 0 mm 0 W/m2
17:43 4.3 °C 3.1 °C 1030.7 hPa WNW 3.2 km/h 9.7 km/h 92 % 0 mm 0 W/m2
17:44 4.3 °C 3.1 °C 1030.7 hPa NW 3.2 km/h 6.4 km/h 92 % 0 mm 0 W/m2
17:49 4.3 °C 3.1 °C 1031 hPa NW 3.2 km/h 6.4 km/h 92 % 0 mm 0 W/m2
17:50 4.3 °C 3.1 °C 1030.7 hPa NW 3.2 km/h 6.4 km/h 92 % 0 mm 0 W/m2
17:55 4.2 °C 3 °C 1030.7 hPa NW 3.2 km/h 8 km/h 92 % 0 mm 0 W/m2
17:57 4.2 °C 3 °C 1030.7 hPa WNW 6.4 km/h 9.7 km/h 92 % 0 mm 0 W/m2
18:00 4.2 °C 3 °C 1030.7 hPa WNW 4.8 km/h 8 km/h 92 % 0 mm 0 W/m2
18:02 4.2 °C 3 °C 1030.7 hPa WNW 4.8 km/h 6.4 km/h 92 % 0 mm 0 W/m2
18:07 4.1 °C 2.9 °C 1030.7 hPa WNW 6.4 km/h 9.7 km/h 92 % 0 mm 0 W/m2
18:10 4.1 °C 2.9 °C 1030.7 hPa WNW 6.4 km/h 9.7 km/h 92 % 0 mm 0 W/m2
18:15 4.1 °C 3.1 °C 1030.7 hPa West 6.4 km/h 9.7 km/h 93 % 0 mm 0 W/m2
18:20 4.2 °C 3.2 °C 1030.7 hPa WNW 1.6 km/h 6.4 km/h 93 % 0 mm 0 W/m2
18:21 4.2 °C 3.2 °C 1030.7 hPa WNW 1.6 km/h 6.4 km/h 93 % 0 mm 0 W/m2
18:26 4.2 °C 3.2 °C 1030.7 hPa WNW 3.2 km/h 8 km/h 93 % 0 mm 0 W/m2
18:28 4.2 °C 3.2 °C 1030.7 hPa WNW 1.6 km/h 6.4 km/h 93 % 0 mm 0 W/m2
18:33 4.2 °C 3.2 °C 1030.7 hPa Calm   3.2 km/h 93 % 0 mm 0 W/m2
18:35 4.1 °C 3.1 °C 1030.7 hPa WNW 1.6 km/h 3.2 km/h 93 % 0 mm 0 W/m2
18:41 4.1 °C 3.1 °C 1030.7 hPa Calm   1.6 km/h 93 % 0 mm 0 W/m2
18:43 4 °C 2.9 °C 1030.7 hPa Calm   3.2 km/h 93 % 0 mm 0 W/m2
18:47 3.9 °C 2.7 °C 1030.7 hPa Calm     92 % 0 mm 0 W/m2
18:48 3.9 °C 2.7 °C 1030.7 hPa Calm     92 % 0 mm 0 W/m2
18:53 3.7 °C 2.5 °C 1030.7 hPa Calm     92 % 0 mm 0 W/m2
18:54 3.7 °C 2.5 °C 1030.7 hPa Calm     92 % 0 mm 0 W/m2
18:59 3.6 °C 2.4 °C 1030.7 hPa Calm     92 % 0 mm 0 W/m2
19:02 3.5 °C 2.3 °C 1030.7 hPa Calm     92 % 0 mm 0 W/m2
19:07 3.5 °C 2.5 °C 1031 hPa Calm     93 % 0 mm 0 W/m2
19:12 3.4 °C 2.4 °C 1031 hPa Calm     93 % 0 mm 0 W/m2
19:14 3.3 °C 2.3 °C 1031 hPa Calm     93 % 0 mm 0 W/m2
19:19 3.3 °C 2.3 °C 1031.4 hPa Calm     93 % 0 mm 0 W/m2
19:22 3.3 °C 2.3 °C 1031.4 hPa Calm     93 % 0 mm 0 W/m2
19:28 3.2 °C 2.2 °C 1031 hPa Calm     93 % 0 mm 0 W/m2
19:33 3.1 °C 2.1 °C 1031 hPa Calm     93 % 0 mm 0 W/m2
19:35 3.1 °C 2.2 °C 1031 hPa Calm     94 % 0 mm 0 W/m2
19:40 3.2 °C 2.3 °C 1031 hPa Calm     94 % 0 mm 0 W/m2
19:44 3.1 °C 2.2 °C 1031 hPa Calm     94 % 0 mm 0 W/m2
19:46 3.1 °C 2.2 °C 1031.4 hPa Calm     94 % 0 mm 0 W/m2
19:51 3 °C 2.1 °C 1031.4 hPa Calm     94 % 0 mm 0 W/m2
19:55 2.9 °C 2.1 °C 1031 hPa Calm     94 % 0 mm 0 W/m2
20:00 2.9 °C 2.1 °C 1031 hPa Calm   3.2 km/h 94 % 0 mm 0 W/m2
20:02 2.9 °C 2.1 °C 1031 hPa WNW 1.6 km/h 4.8 km/h 94 % 0 mm 0 W/m2
20:07 2.9 °C 2.1 °C 1031 hPa WNW 3.2 km/h 8 km/h 94 % 0 mm 0 W/m2
20:08 2.9 °C 2.1 °C 1031 hPa WNW 4.8 km/h 8 km/h 94 % 0 mm 0 W/m2
20:13 2.9 °C 2.1 °C 1031 hPa WNW 3.2 km/h 6.4 km/h 94 % 0 mm 0 W/m2
20:18 3 °C 2.1 °C 1031 hPa WNW 3.2 km/h 6.4 km/h 94 % 0 mm 0 W/m2
20:20 3 °C 2.1 °C 1031 hPa WNW 1.6 km/h 6.4 km/h 94 % 0 mm 0 W/m2
20:25 2.9 °C 2.1 °C 1031 hPa Calm   3.2 km/h 94 % 0 mm 0 W/m2
20:29 2.9 °C 2.1 °C 1031.4 hPa Calm     94 % 0 mm 0 W/m2
20:34 2.9 °C 2.2 °C 1031.4 hPa Calm     95 % 0 mm 0 W/m2
20:39 2.9 °C 2.1 °C 1031.4 hPa Calm   3.2 km/h 94 % 0 mm 0 W/m2
20:40 2.9 °C 2.1 °C 1031.4 hPa Calm   3.2 km/h 94 % 0 mm 0 W/m2
20:45 3 °C 2.3 °C 1031 hPa WNW 1.6 km/h 3.2 km/h 95 % 0 mm 0 W/m2
20:50 3 °C 2.3 °C 1031.4 hPa Calm     95 % 0 mm 0 W/m2
20:54 3 °C 2.3 °C 1031 hPa Calm     95 % 0 mm 0 W/m2
20:58 2.9 °C 2.2 °C 1031.4 hPa Calm     95 % 0 mm 0 W/m2
21:03 2.8 °C 1.9 °C 1031 hPa Calm     94 % 0 mm 0 W/m2
21:04 2.8 °C 1.9 °C 1031 hPa Calm     94 % 0 mm 0 W/m2
21:09 2.8 °C 1.9 °C 1031 hPa Calm     94 % 0 mm 0 W/m2
21:11 2.8 °C 2.1 °C 1031 hPa WNW 1.6 km/h 3.2 km/h 95 % 0 mm 0 W/m2
21:12 2.8 °C 2.1 °C 1031 hPa WNW 1.6 km/h 3.2 km/h 95 % 0 mm 0 W/m2
21:17 2.9 °C 2.2 °C 1031 hPa WNW 1.6 km/h 3.2 km/h 95 % 0 mm 0 W/m2
21:18 2.9 °C 2.2 °C 1031 hPa WNW 1.6 km/h 3.2 km/h 95 % 0 mm 0 W/m2
21:19 2.9 °C 2.2 °C 1031 hPa WNW 3.2 km/h 3.2 km/h 95 % 0 mm 0 W/m2
21:24 3 °C 2.3 °C 1031 hPa Calm   1.6 km/h 95 % 0 mm 0 W/m2
21:27 3.1 °C 2.4 °C 1031 hPa WNW 1.6 km/h 4.8 km/h 95 % 0 mm 0 W/m2
21:30 3.1 °C 2.4 °C 1031 hPa WNW 3.2 km/h 6.4 km/h 95 % 0 mm 0 W/m2
21:35 3.1 °C 2.4 °C 1031 hPa WNW 1.6 km/h 3.2 km/h 95 % 0 mm 0 W/m2
21:36 3.1 °C 2.4 °C 1031 hPa Calm   1.6 km/h 95 % 0 mm 0 W/m2
21:42 3 °C 2.3 °C 1031 hPa Calm     95 % 0 mm 0 W/m2
21:43 2.9 °C 2.2 °C 1031 hPa Calm     95 % 0 mm 0 W/m2
21:44 2.9 °C 2.2 °C 1031 hPa Calm     95 % 0 mm 0 W/m2
21:49 2.9 °C 2.2 °C 1031 hPa NNE 1.6 km/h 3.2 km/h 95 % 0 mm 0 W/m2
21:54 2.9 °C 2.2 °C 1031 hPa Calm     95 % 0 mm 0 W/m2
21:56 2.9 °C 2.2 °C 1031 hPa Calm     95 % 0 mm 0 W/m2
21:58 2.9 °C 2.2 °C 1031 hPa NW 1.6 km/h 4.8 km/h 95 % 0 mm 0 W/m2
22:02 2.9 °C 2.2 °C 1031 hPa West 4.8 km/h 8 km/h 95 % 0 mm 0 W/m2
22:05 2.9 °C 2.2 °C 1031 hPa WSW 3.2 km/h 6.4 km/h 95 % 0 mm 0 W/m2
22:10 3 °C 2.4 °C 1031 hPa Calm   3.2 km/h 96 % 0 mm 0 W/m2
22:12 3.1 °C 2.5 °C 1031 hPa Calm   1.6 km/h 96 % 0 mm 0 W/m2
22:17 3.2 °C 2.6 °C 1031 hPa Calm     96 % 0 mm 0 W/m2
22:19 3.1 °C 2.4 °C 1031 hPa Calm   1.6 km/h 95 % 0 mm 0 W/m2
22:24 3.1 °C 2.4 °C 1031 hPa Calm     95 % 0 mm 0 W/m2
22:29 3.1 °C 2.4 °C 1031 hPa WSW 3.2 km/h 6.4 km/h 95 % 0 mm 0 W/m2
22:32 3.1 °C 2.4 °C 1031 hPa WSW 3.2 km/h 6.4 km/h 95 % 0 mm 0 W/m2
22:33 3.1 °C 2.4 °C 1031 hPa WSW 3.2 km/h 6.4 km/h 95 % 0 mm 0 W/m2
22:39 3.1 °C 2.5 °C 1031 hPa WNW 4.8 km/h 8 km/h 96 % 0 mm 0 W/m2
22:40 3.2 °C 2.6 °C 1031 hPa WNW 4.8 km/h 8 km/h 96 % 0 mm 0 W/m2
22:44 3.3 °C 2.7 °C 1031 hPa West 1.6 km/h 6.4 km/h 96 % 0 mm 0 W/m2
22:45 3.3 °C 2.7 °C 1031 hPa West 1.6 km/h 6.4 km/h 96 % 0 mm 0 W/m2
22:50 3.5 °C 2.9 °C 1031.4 hPa West 3.2 km/h 8 km/h 96 % 0 mm 0 W/m2
22:51 3.5 °C 2.9 °C 1031 hPa West 3.2 km/h 6.4 km/h 96 % 0 mm 0 W/m2
22:56 3.6 °C 3 °C 1031 hPa West 3.2 km/h 8 km/h 96 % 0 mm 0 W/m2
22:59 3.7 °C 3.1 °C 1031 hPa West 1.6 km/h 6.4 km/h 96 % 0 mm 0 W/m2
23:04 3.8 °C 3.2 °C 1031 hPa WNW 4.8 km/h 9.7 km/h 96 % 0 mm 0 W/m2
23:09 4 °C 3.4 °C 1031 hPa West 6.4 km/h 9.7 km/h 96 % 0 mm 0 W/m2
23:14 4.1 °C 3.5 °C 1031 hPa West 4.8 km/h 8 km/h 96 % 0 mm 0 W/m2
23:19 4.1 °C 3.5 °C 1031.4 hPa Calm   3.2 km/h 96 % 0 mm 0 W/m2
23:20 4.1 °C 3.5 °C 1031.4 hPa Calm   1.6 km/h 96 % 0 mm 0 W/m2
23:25 4 °C 3.4 °C 1031.4 hPa Calm   1.6 km/h 96 % 0 mm 0 W/m2
23:26 4 °C 3.4 °C 1031.4 hPa Calm   1.6 km/h 96 % 0 mm 0 W/m2
23:27 3.9 °C 3.3 °C 1031.4 hPa Calm   1.6 km/h 96 % 0 mm 0 W/m2
23:32 3.9 °C 3.3 °C 1031.4 hPa West 1.6 km/h 4.8 km/h 96 % 0 mm 0 W/m2
23:35 3.8 °C 3.2 °C 1031.4 hPa West 1.6 km/h 3.2 km/h 96 % 0 mm 0 W/m2
23:38 3.9 °C 3.3 °C 1031.4 hPa Calm   3.2 km/h 96 % 0 mm 0 W/m2
23:43 3.8 °C 3.2 °C 1031.4 hPa Calm   4.8 km/h 96 % 0 mm 0 W/m2
23:44 3.8 °C 3.1 °C 1031.4 hPa West 1.6 km/h 4.8 km/h 95 % 0 mm 0 W/m2
23:49 3.7 °C 3 °C 1031.4 hPa Calm     95 % 0 mm 0 W/m2
23:50 3.7 °C 3 °C 1031.4 hPa Calm     95 % 0 mm 0 W/m2
23:55 3.7 °C 3 °C 1031.4 hPa NE 3.2 km/h 4.8 km/h 95 % 0 mm 0 W/m2
23:56 3.7 °C 3 °C 1031.4 hPa NE 1.6 km/h 4.8 km/h 95 % 0 mm 0 W/m2
23:57 3.7 °C 3.1 °C 1031.4 hPa NE 1.6 km/h 4.8 km/h 96 % 0 mm 0 W/m2
Delerius-Weather
Compliments of Weather Underground - 3 mb

Data updates at regular intervals.